createdAt,value
2023-06-04T00:01:30.128Z,1.57
2023-06-04T00:03:58.478Z,1.73
2023-06-04T00:06:26.448Z,2.00
2023-06-04T00:08:54.413Z,1.67
2023-06-04T00:11:22.530Z,1.40
2023-06-04T00:13:50.607Z,1.70
2023-06-04T00:16:19.887Z,1.53
2023-06-04T00:18:47.793Z,1.70
2023-06-04T00:21:15.781Z,1.50
2023-06-04T00:23:44.352Z,2.00
2023-06-04T00:26:15.787Z,1.92
2023-06-04T00:28:43.920Z,1.43
2023-06-04T00:31:13.778Z,1.37
2023-06-04T00:33:43.090Z,1.60
2023-06-04T00:36:11.273Z,1.60
2023-06-04T00:38:39.166Z,1.40
2023-06-04T00:41:07.451Z,1.80
2023-06-04T00:43:36.999Z,1.70
2023-06-04T00:46:05.222Z,1.30
2023-06-04T00:48:33.294Z,1.60
2023-06-04T00:51:02.704Z,1.17
2023-06-04T00:53:30.676Z,1.30
2023-06-04T00:55:58.553Z,1.20
2023-06-04T00:58:27.420Z,1.50
2023-06-04T01:00:59.005Z,1.37
2023-06-04T01:03:32.840Z,1.40
2023-06-04T01:06:11.188Z,1.30
2023-06-04T01:08:43.914Z,1.90
2023-06-04T01:11:11.982Z,1.57
2023-06-04T01:13:39.907Z,1.30
2023-06-04T01:16:08.100Z,1.40
2023-06-04T01:18:38.773Z,1.20
2023-06-04T01:21:10.400Z,1.23
2023-06-04T01:23:48.075Z,1.50
2023-06-04T01:26:16.249Z,1.40
2023-06-04T01:28:46.038Z,1.30
2023-06-04T01:31:15.254Z,1.27
2023-06-04T01:33:43.608Z,1.50
2023-06-04T01:36:13.520Z,1.20
2023-06-04T01:38:41.488Z,1.17
2023-06-04T01:41:09.480Z,1.30
2023-06-04T01:43:37.411Z,1.17
2023-06-04T01:46:05.755Z,1.10
2023-06-04T01:48:34.298Z,1.40
2023-06-04T01:51:03.218Z,1.10
2023-06-04T01:53:33.165Z,1.30
2023-06-04T01:56:02.392Z,1.00
2023-06-04T01:58:30.468Z,1.30
2023-06-04T02:01:03.979Z,1.30
2023-06-04T02:03:38.113Z,1.50
2023-06-04T02:06:08.838Z,1.20
2023-06-04T02:08:38.435Z,1.17
2023-06-04T02:11:06.706Z,1.30
2023-06-04T02:13:34.946Z,1.23
2023-06-04T02:16:03.010Z,1.00
2023-06-04T02:18:31.248Z,1.27
2023-06-04T02:21:00.078Z,1.20
2023-06-04T02:23:28.157Z,1.30
2023-06-04T02:25:57.445Z,0.97
2023-06-04T02:28:25.968Z,1.10
2023-06-04T02:30:54.445Z,1.00
2023-06-04T02:33:22.944Z,1.27
2023-06-04T02:35:51.129Z,1.00
2023-06-04T02:38:19.159Z,0.90
2023-06-04T02:40:47.055Z,1.30
2023-06-04T02:43:16.465Z,1.40
2023-06-04T02:45:44.467Z,1.13
2023-06-04T02:48:12.457Z,1.20
2023-06-04T02:50:43.526Z,1.40
2023-06-04T02:53:11.617Z,1.30
2023-06-04T02:55:39.719Z,1.50
2023-06-04T02:58:08.220Z,1.10
2023-06-04T03:00:37.577Z,1.20
2023-06-04T03:03:05.758Z,1.10
2023-06-04T03:05:34.248Z,1.40
2023-06-04T03:08:04.103Z,1.17
2023-06-04T03:10:32.409Z,1.20
2023-06-04T03:13:00.542Z,1.40
2023-06-04T03:15:28.468Z,1.23
2023-06-04T03:17:58.304Z,1.20
2023-06-04T03:20:26.396Z,1.30
2023-06-04T03:22:54.587Z,1.00
2023-06-04T03:25:22.673Z,1.20
2023-06-04T03:27:50.996Z,1.17
2023-06-04T03:30:19.074Z,1.23
2023-06-04T03:32:47.176Z,1.30
2023-06-04T03:35:16.716Z,1.30
2023-06-04T03:37:44.676Z,1.37
2023-06-04T03:40:13.484Z,1.07
2023-06-04T03:42:41.417Z,1.00
2023-06-04T03:45:10.252Z,1.00
2023-06-04T03:47:38.316Z,1.27
2023-06-04T03:50:07.357Z,1.10
2023-06-04T03:52:37.402Z,1.40
2023-06-04T03:55:06.009Z,1.47
2023-06-04T03:57:33.964Z,1.13
2023-06-04T04:00:01.835Z,1.30
2023-06-04T04:02:30.007Z,1.33
2023-06-04T04:04:58.248Z,1.17
2023-06-04T04:07:26.525Z,1.23
2023-06-04T04:09:55.851Z,1.37
2023-06-04T04:12:23.910Z,1.83
2023-06-04T04:14:52.052Z,1.40
2023-06-04T04:17:19.982Z,1.27
2023-06-04T04:19:47.995Z,1.50
2023-06-04T04:22:18.567Z,1.30
2023-06-04T04:24:46.594Z,1.70
2023-06-04T04:27:16.877Z,1.57
2023-06-04T04:29:45.724Z,1.63
2023-06-04T04:32:13.658Z,1.43
2023-06-04T04:34:53.303Z,1.70
2023-06-04T04:37:23.133Z,1.33
2023-06-04T04:39:53.017Z,1.53
2023-06-04T04:42:22.534Z,1.50
2023-06-04T04:44:51.691Z,0.93
2023-06-04T04:47:19.767Z,1.20
2023-06-04T04:49:50.336Z,1.33
2023-06-04T04:52:18.607Z,1.92
2023-06-04T04:54:46.463Z,1.60
2023-06-04T04:57:14.641Z,1.23
2023-06-04T04:59:43.974Z,1.38
2023-06-04T05:02:12.168Z,1.20
2023-06-04T05:04:40.113Z,1.23
2023-06-04T05:07:07.970Z,1.30
2023-06-04T05:09:35.921Z,1.20
2023-06-04T05:12:03.995Z,0.90
2023-06-04T05:14:32.773Z,1.30
2023-06-04T05:17:02.188Z,1.13
2023-06-04T05:19:30.225Z,1.13
2023-06-04T05:21:58.149Z,1.15
2023-06-04T05:24:26.066Z,1.25
2023-06-04T05:26:54.021Z,1.35
2023-06-04T05:29:21.889Z,1.40
2023-06-04T05:31:49.834Z,1.13
2023-06-04T05:34:19.435Z,1.13
2023-06-04T05:36:47.329Z,1.42
2023-06-04T05:39:15.470Z,1.42
2023-06-04T05:41:44.437Z,1.02
2023-06-04T05:44:12.319Z,1.23
2023-06-04T05:46:40.171Z,1.02
2023-06-04T05:49:08.162Z,0.88
2023-06-04T05:51:38.238Z,1.15
2023-06-04T05:54:06.435Z,1.20
2023-06-04T05:56:34.392Z,1.45
2023-06-04T05:59:02.356Z,1.20
2023-06-04T06:01:30.893Z,1.42
2023-06-04T06:03:59.144Z,1.20
2023-06-04T06:06:27.144Z,1.20
2023-06-04T06:08:56.763Z,1.10
2023-06-04T06:11:24.804Z,1.08
2023-06-04T06:13:52.712Z,1.10
2023-06-04T06:16:20.736Z,1.27
2023-06-04T06:18:49.543Z,1.10
2023-06-04T06:21:17.573Z,1.10
2023-06-04T06:23:45.751Z,1.27
2023-06-04T06:26:15.038Z,1.10
2023-06-04T06:28:42.974Z,1.10
2023-06-04T06:31:11.319Z,1.20
2023-06-04T06:33:42.389Z,1.05
2023-06-04T06:36:10.555Z,1.10
2023-06-04T06:38:38.514Z,1.50
2023-06-04T06:41:07.305Z,1.00
2023-06-04T06:43:36.894Z,1.10
2023-06-04T06:46:04.938Z,1.10
2023-06-04T06:48:32.964Z,0.98
2023-06-04T06:51:01.511Z,0.90
2023-06-04T06:53:29.417Z,0.90
2023-06-04T06:55:57.926Z,0.68
2023-06-04T06:58:25.854Z,0.80
2023-06-04T07:00:57.796Z,0.70
2023-06-04T07:03:26.003Z,0.70
2023-06-04T07:05:53.871Z,0.55
2023-06-04T07:08:22.366Z,1.05
2023-06-04T07:10:50.529Z,0.80
2023-06-04T07:13:18.504Z,0.80
2023-06-04T07:15:46.508Z,1.05
2023-06-04T07:18:15.993Z,0.88
2023-06-04T07:20:44.079Z,0.70
2023-06-04T07:23:12.350Z,0.90
2023-06-04T07:25:40.365Z,0.60
2023-06-04T07:28:08.416Z,0.63
2023-06-04T07:30:37.901Z,0.60
2023-06-04T07:33:07.584Z,0.73
2023-06-04T07:35:37.229Z,0.50
2023-06-04T07:38:05.294Z,0.43
2023-06-04T07:40:33.330Z,1.00
2023-06-04T07:43:01.338Z,0.80
2023-06-04T07:45:32.556Z,0.88
2023-06-04T07:48:02.178Z,0.70
2023-06-04T07:50:35.871Z,0.82
2023-06-04T07:53:07.795Z,1.10
2023-06-04T07:55:36.399Z,0.85
2023-06-04T07:58:06.335Z,0.75
2023-06-04T08:00:34.519Z,1.05
2023-06-04T08:03:02.665Z,0.88
2023-06-04T08:05:30.790Z,0.80
2023-06-04T08:07:58.805Z,0.70
2023-06-04T08:10:28.180Z,0.80
2023-06-04T08:12:56.194Z,0.90
2023-06-04T08:15:24.538Z,0.70
2023-06-04T08:17:52.851Z,1.88
2023-06-04T08:20:20.904Z,1.33
2023-06-04T08:22:48.907Z,1.10
2023-06-04T08:25:17.097Z,0.95
2023-06-04T08:27:46.570Z,0.60
2023-06-04T08:30:14.994Z,0.85
2023-06-04T08:32:42.927Z,0.70
2023-06-04T08:35:11.945Z,1.88
2023-06-04T08:37:39.980Z,0.98
2023-06-04T08:40:10.220Z,0.95
2023-06-04T08:42:45.757Z,0.68
2023-06-04T08:45:17.751Z,1.02
2023-06-04T08:47:50.214Z,0.70
2023-06-04T08:50:20.435Z,1.00
2023-06-04T08:52:49.395Z,1.65
2023-06-04T08:55:17.501Z,1.10
2023-06-04T08:57:45.728Z,0.90
2023-06-04T09:00:16.642Z,0.70
2023-06-04T09:02:45.713Z,0.70
2023-06-04T09:05:21.177Z,1.17
2023-06-04T09:07:50.693Z,3.28
2023-06-04T09:10:22.701Z,1.50
2023-06-04T09:12:53.425Z,0.80
2023-06-04T09:15:22.832Z,1.27
2023-06-04T09:17:51.016Z,0.73
2023-06-04T09:20:22.594Z,1.00
2023-06-04T09:22:50.742Z,0.82
2023-06-04T09:25:23.557Z,0.80
2023-06-04T09:27:51.773Z,0.60
2023-06-04T09:30:20.273Z,0.65
2023-06-04T09:32:49.650Z,1.10
2023-06-04T09:35:19.809Z,0.80
2023-06-04T09:37:54.982Z,1.73
2023-06-04T09:40:22.914Z,1.00
2023-06-04T09:42:55.605Z,1.08
2023-06-04T09:45:31.028Z,0.98
2023-06-04T09:48:00.446Z,1.10
2023-06-04T09:50:29.719Z,0.90
2023-06-04T09:52:58.004Z,1.10
2023-06-04T09:55:26.374Z,1.10
2023-06-04T09:57:55.661Z,0.77
2023-06-04T10:00:26.062Z,0.60
2023-06-04T10:02:59.669Z,0.90
2023-06-04T10:05:33.880Z,0.95
2023-06-04T10:08:04.945Z,0.95
2023-06-04T10:10:38.217Z,0.85
2023-06-04T10:13:09.130Z,1.00
2023-06-04T10:15:38.285Z,0.60
2023-06-04T10:18:07.774Z,0.80
2023-06-04T10:20:37.598Z,0.70
2023-06-04T10:23:05.650Z,0.90
2023-06-04T10:25:34.016Z,0.70
2023-06-04T10:28:03.954Z,0.80
2023-06-04T10:30:32.777Z,0.80
2023-06-04T10:33:01.923Z,0.65
2023-06-04T10:35:38.602Z,0.85
2023-06-04T10:38:08.486Z,0.80
2023-06-04T10:40:37.091Z,0.82
2023-06-04T10:43:08.670Z,0.73
2023-06-04T10:45:37.195Z,0.70
2023-06-04T10:48:06.473Z,0.80
2023-06-04T10:50:36.112Z,0.50
2023-06-04T10:53:06.535Z,0.50
2023-06-04T10:55:45.321Z,0.60
2023-06-04T10:58:13.351Z,0.70
2023-06-04T11:00:43.083Z,0.65
2023-06-04T11:03:13.082Z,0.70
2023-06-04T11:05:44.395Z,0.80
2023-06-04T11:08:16.487Z,0.50
2023-06-04T11:10:47.309Z,0.73
2023-06-04T11:13:16.002Z,0.70
2023-06-04T11:15:45.067Z,0.40
2023-06-04T11:18:17.154Z,0.55
2023-06-04T11:20:46.778Z,0.70
2023-06-04T11:23:17.016Z,0.73
2023-06-04T11:25:46.882Z,0.60
2023-06-04T11:28:19.427Z,0.57
2023-06-04T11:30:58.693Z,0.60
2023-06-04T11:33:26.859Z,0.52
2023-06-04T11:35:54.780Z,0.50
2023-06-04T11:38:24.212Z,0.70
2023-06-04T11:41:00.562Z,0.77
2023-06-04T11:43:29.755Z,0.82
2023-06-04T11:45:57.973Z,0.77
2023-06-04T11:48:28.905Z,0.60
2023-06-04T11:50:57.228Z,0.63
2023-06-04T11:53:27.365Z,0.63
2023-06-04T11:55:55.345Z,0.70
2023-06-04T11:58:23.469Z,0.80
2023-06-04T12:00:51.825Z,0.50
2023-06-04T12:03:19.784Z,0.65
2023-06-04T12:05:48.007Z,0.52
2023-06-04T12:08:15.959Z,0.60
2023-06-04T12:10:46.144Z,0.60
2023-06-04T12:13:14.016Z,0.50
2023-06-04T12:15:42.251Z,0.70
2023-06-04T12:18:10.949Z,0.68
2023-06-04T12:20:40.884Z,0.70
2023-06-04T12:23:09.628Z,0.65
2023-06-04T12:25:38.915Z,0.75
2023-06-04T12:28:08.426Z,0.82
2023-06-04T12:30:40.151Z,0.60
2023-06-04T12:33:08.400Z,0.75
2023-06-04T12:35:37.196Z,0.77
2023-06-04T12:38:06.312Z,0.77
2023-06-04T12:40:34.521Z,0.60
2023-06-04T12:43:02.593Z,0.90
2023-06-04T12:45:31.910Z,0.60
2023-06-04T12:47:59.914Z,0.80
2023-06-04T12:50:27.912Z,0.73
2023-06-04T12:52:56.118Z,0.70
2023-06-04T12:55:25.319Z,0.63
2023-06-04T12:57:55.300Z,0.90
2023-06-04T13:00:23.655Z,0.65
2023-06-04T13:02:53.446Z,1.10
2023-06-04T13:05:21.633Z,1.00
2023-06-04T13:07:49.590Z,1.00
2023-06-04T13:10:17.681Z,0.73
2023-06-04T13:12:45.654Z,1.10
2023-06-04T13:15:13.619Z,0.77
2023-06-04T13:17:41.620Z,0.73
2023-06-04T13:20:12.670Z,0.70
2023-06-04T13:22:41.552Z,0.95
2023-06-04T13:25:10.459Z,0.70
2023-06-04T13:27:38.458Z,1.08
2023-06-04T13:30:07.853Z,0.80
2023-06-04T13:32:35.874Z,0.70
2023-06-04T13:35:05.687Z,0.82
2023-06-04T13:37:35.020Z,0.77
2023-06-04T13:40:03.162Z,0.68
2023-06-04T13:42:31.179Z,0.60
2023-06-04T13:45:03.936Z,0.80
2023-06-04T13:47:33.414Z,0.68
2023-06-04T13:50:01.794Z,0.75
2023-06-04T13:52:30.460Z,0.82
2023-06-04T13:55:00.826Z,0.73
2023-06-04T13:57:33.453Z,0.75
2023-06-04T14:00:02.007Z,0.90
2023-06-04T14:02:30.024Z,0.80
2023-06-04T14:04:57.926Z,0.82
2023-06-04T14:07:25.866Z,0.80
2023-06-04T14:09:56.019Z,0.88
2023-06-04T14:12:26.149Z,0.50
2023-06-04T14:14:57.049Z,0.80
2023-06-04T14:17:26.126Z,0.80
2023-06-04T14:19:56.920Z,0.60
2023-06-04T14:22:24.852Z,0.68
2023-06-04T14:24:52.781Z,0.90
2023-06-04T14:27:24.821Z,0.80
2023-06-04T14:30:02.448Z,0.82
2023-06-04T14:32:30.544Z,1.00
2023-06-04T14:34:58.803Z,1.10
2023-06-04T14:37:26.987Z,0.80
2023-06-04T14:39:55.015Z,0.90
2023-06-04T14:42:23.012Z,0.70
2023-06-04T14:44:51.032Z,0.80
2023-06-04T14:47:20.376Z,0.90
2023-06-04T14:49:48.313Z,1.13
2023-06-04T14:52:17.387Z,0.82
2023-06-04T14:54:45.388Z,0.90
2023-06-04T14:57:14.328Z,0.63
2023-06-04T14:59:44.310Z,0.60
2023-06-04T15:02:12.523Z,0.60
2023-06-04T15:04:45.288Z,0.80
2023-06-04T15:07:22.057Z,0.90
2023-06-04T15:09:49.988Z,1.23
2023-06-04T15:12:20.676Z,0.82
2023-06-04T15:14:48.824Z,0.70
2023-06-04T15:17:16.875Z,1.13
2023-06-04T15:19:46.277Z,1.35
2023-06-04T15:22:14.185Z,1.00
2023-06-04T15:24:42.159Z,1.20
2023-06-04T15:27:09.997Z,1.00
2023-06-04T15:29:38.089Z,1.10
2023-06-04T15:32:06.866Z,0.90
2023-06-04T15:34:34.942Z,1.00
2023-06-04T15:37:04.356Z,1.27
2023-06-04T15:39:33.068Z,0.70
2023-06-04T15:42:01.079Z,1.02
2023-06-04T15:44:29.837Z,0.88
2023-06-04T15:46:57.716Z,1.00
2023-06-04T15:49:25.961Z,1.15
2023-06-04T15:51:53.973Z,0.70
2023-06-04T15:54:37.006Z,0.70
2023-06-04T15:57:11.374Z,1.10
2023-06-04T15:59:39.328Z,0.80
2023-06-04T16:02:08.089Z,0.75
2023-06-04T16:04:36.059Z,1.20
2023-06-04T16:07:05.624Z,2.30
2023-06-04T16:09:34.965Z,1.45
2023-06-04T16:12:03.270Z,0.90
2023-06-04T16:14:31.239Z,1.27
2023-06-04T16:16:59.620Z,0.95
2023-06-04T16:19:27.691Z,1.10
2023-06-04T16:21:55.984Z,1.92
2023-06-04T16:24:24.053Z,1.40
2023-06-04T16:26:53.361Z,2.20
2023-06-04T16:29:21.400Z,1.02
2023-06-04T16:31:49.450Z,1.13
2023-06-04T16:34:17.671Z,0.98
2023-06-04T16:36:45.631Z,1.50
2023-06-04T16:39:13.624Z,1.20
2023-06-04T16:41:43.047Z,1.23
2023-06-04T16:44:12.788Z,1.05
2023-06-04T16:46:40.771Z,1.30
2023-06-04T16:49:08.696Z,1.17
2023-06-04T16:51:37.291Z,0.80
2023-06-04T16:54:05.389Z,0.98
2023-06-04T16:56:33.341Z,1.13
2023-06-04T16:59:01.439Z,0.88
2023-06-04T17:01:30.835Z,1.00
2023-06-04T17:03:58.795Z,0.93
2023-06-04T17:06:28.426Z,1.05
2023-06-04T17:08:56.626Z,0.95
2023-06-04T17:11:24.474Z,0.80
2023-06-04T17:13:52.687Z,1.05
2023-06-04T17:16:20.933Z,0.93
2023-06-04T17:18:50.443Z,1.00
2023-06-04T17:21:18.818Z,0.88
2023-06-04T17:23:49.450Z,0.90
2023-06-04T17:26:17.612Z,1.60
2023-06-04T17:28:45.749Z,1.33
2023-06-04T17:31:18.307Z,1.20
2023-06-04T17:33:46.648Z,1.00
2023-06-04T17:36:15.840Z,1.00
2023-06-04T17:38:43.811Z,0.80
2023-06-04T17:41:12.035Z,1.20
2023-06-04T17:43:40.379Z,1.30
2023-06-04T17:46:08.662Z,1.02
2023-06-04T17:48:37.397Z,0.93
2023-06-04T17:51:06.040Z,1.05
2023-06-04T17:53:35.521Z,0.90
2023-06-04T17:56:04.146Z,1.05
2023-06-04T17:58:32.275Z,1.15
2023-06-04T18:01:00.295Z,0.98
2023-06-04T18:03:30.730Z,0.90
2023-06-04T18:05:58.745Z,0.90
2023-06-04T18:08:26.773Z,0.90
2023-06-04T18:10:57.173Z,1.00
2023-06-04T18:13:25.214Z,1.40
2023-06-04T18:15:56.190Z,1.05
2023-06-04T18:18:25.149Z,1.17
2023-06-04T18:20:53.154Z,0.95
2023-06-04T18:23:21.344Z,1.45
2023-06-04T18:25:49.426Z,0.80
2023-06-04T18:28:18.904Z,1.00
2023-06-04T18:30:46.989Z,1.52
2023-06-04T18:33:14.941Z,1.17
2023-06-04T18:35:42.887Z,1.02
2023-06-04T18:38:10.831Z,1.10
2023-06-04T18:40:38.782Z,1.10
2023-06-04T18:43:06.777Z,1.20
2023-06-04T18:45:36.041Z,1.10
2023-06-04T18:48:04.288Z,1.13
2023-06-04T18:50:32.324Z,1.10
2023-06-04T18:53:00.916Z,1.02
2023-06-04T18:55:28.856Z,1.00
2023-06-04T18:57:56.891Z,2.05
2023-06-04T19:00:25.029Z,1.40
2023-06-04T19:02:54.415Z,1.45
2023-06-04T19:05:23.186Z,1.73
2023-06-04T19:07:52.841Z,1.85
2023-06-04T19:10:21.885Z,1.50
2023-06-04T19:12:49.792Z,1.58
2023-06-04T19:15:18.264Z,1.50
2023-06-04T19:17:46.467Z,1.80
2023-06-04T19:20:18.361Z,1.27
2023-06-04T19:22:48.317Z,1.40
2023-06-04T19:25:17.961Z,1.63
2023-06-04T19:27:46.170Z,2.17
2023-06-04T19:30:14.588Z,2.28
2023-06-04T19:32:42.776Z,2.10
2023-06-04T19:35:11.171Z,2.15
2023-06-04T19:37:40.659Z,1.50
2023-06-04T19:40:10.033Z,2.03
2023-06-04T19:42:37.941Z,2.30
2023-06-04T19:45:07.000Z,1.95
2023-06-04T19:47:41.249Z,2.20
2023-06-04T19:50:09.973Z,1.60
2023-06-04T19:52:37.931Z,1.80
2023-06-04T19:55:09.223Z,1.58
2023-06-04T19:57:37.174Z,1.52
2023-06-04T20:00:06.145Z,1.80
2023-06-04T20:02:34.300Z,2.50
2023-06-04T20:05:02.678Z,2.28
2023-06-04T20:07:30.832Z,1.98
2023-06-04T20:09:59.076Z,1.67
2023-06-04T20:12:28.419Z,2.13
2023-06-04T20:14:56.924Z,2.08
2023-06-04T20:17:25.446Z,1.63
2023-06-04T20:19:54.997Z,1.70
2023-06-04T20:22:22.979Z,2.13
2023-06-04T20:24:51.077Z,2.08
2023-06-04T20:27:19.187Z,2.58
2023-06-04T20:29:49.083Z,2.17
2023-06-04T20:32:17.147Z,2.05
2023-06-04T20:34:45.173Z,1.90
2023-06-04T20:37:13.195Z,1.83
2023-06-04T20:39:42.208Z,2.10
2023-06-04T20:42:10.379Z,1.77
2023-06-04T20:44:38.446Z,2.15
2023-06-04T20:47:08.075Z,2.05
2023-06-04T20:49:36.250Z,2.42
2023-06-04T20:52:04.738Z,2.40
2023-06-04T20:54:32.817Z,2.65
2023-06-04T20:57:01.042Z,2.47
2023-06-04T20:59:28.950Z,2.83
2023-06-04T21:01:56.916Z,2.00
2023-06-04T21:04:26.420Z,2.17
2023-06-04T21:06:54.313Z,2.72
2023-06-04T21:09:22.233Z,3.35
2023-06-04T21:11:50.121Z,3.38
2023-06-04T21:14:18.133Z,3.40
2023-06-04T21:16:46.359Z,3.80
2023-06-04T21:19:14.470Z,3.58
2023-06-04T21:21:43.900Z,3.30
2023-06-04T21:24:15.217Z,3.45
2023-06-04T21:26:43.287Z,3.45
2023-06-04T21:29:11.347Z,3.38
2023-06-04T21:31:39.368Z,3.92
2023-06-04T21:34:07.509Z,3.83
2023-06-04T21:36:35.421Z,3.17
2023-06-04T21:39:04.830Z,2.63
2023-06-04T21:41:32.793Z,3.33
2023-06-04T21:44:00.840Z,3.28
2023-06-04T21:46:29.314Z,2.95
2023-06-04T21:48:57.296Z,2.72
2023-06-04T21:51:25.221Z,2.97
2023-06-04T21:53:53.119Z,2.70
2023-06-04T21:56:22.571Z,2.58
2023-06-04T21:58:50.784Z,3.00
2023-06-04T22:01:18.886Z,2.25
2023-06-04T22:03:47.016Z,2.72
2023-06-04T22:06:15.285Z,2.83
2023-06-04T22:08:43.328Z,2.85
2023-06-04T22:11:11.773Z,2.95
2023-06-04T22:13:41.132Z,2.33
2023-06-04T22:16:09.638Z,2.55
2023-06-04T22:18:48.620Z,2.75
2023-06-04T22:21:21.068Z,2.50
2023-06-04T22:23:49.190Z,2.63
2023-06-04T22:28:50.026Z,2.25
2023-06-04T22:31:18.065Z,2.53
2023-06-04T22:33:46.316Z,2.72
2023-06-04T22:36:14.508Z,2.80
2023-06-04T22:38:42.445Z,2.90
2023-06-04T22:41:10.721Z,1.65
2023-06-04T22:43:38.796Z,2.30
2023-06-04T22:46:08.134Z,2.20
2023-06-04T22:48:36.173Z,2.00
2023-06-04T22:51:06.260Z,2.10
2023-06-04T22:53:35.203Z,2.58
2023-06-04T22:56:07.651Z,1.98
2023-06-04T22:58:36.171Z,2.30
2023-06-04T23:01:04.536Z,2.10
2023-06-04T23:03:34.019Z,1.73
2023-06-04T23:06:02.124Z,2.00
2023-06-04T23:08:30.100Z,2.20
2023-06-04T23:10:57.977Z,1.90
2023-06-04T23:13:26.080Z,2.25
2023-06-04T23:15:54.058Z,1.95
2023-06-04T23:18:22.001Z,2.30
2023-06-04T23:20:51.510Z,1.92
2023-06-04T23:23:19.533Z,1.90
2023-06-04T23:25:47.405Z,1.77
2023-06-04T23:28:15.710Z,1.75
2023-06-04T23:30:43.722Z,1.85
2023-06-04T23:33:11.800Z,2.05
2023-06-04T23:35:40.211Z,1.98
2023-06-04T23:38:09.536Z,1.48
2023-06-04T23:40:37.628Z,1.65
2023-06-04T23:43:05.568Z,1.60
2023-06-04T23:45:33.571Z,1.75
2023-06-04T23:48:01.640Z,1.63
2023-06-04T23:50:29.565Z,1.70
2023-06-04T23:52:57.612Z,1.50
2023-06-04T23:55:27.016Z,1.40
2023-06-04T23:57:54.892Z,1.80
